createdAt,value
2022-12-28T00:01:26.160Z,8.50
2022-12-28T00:03:53.698Z,8.50
2022-12-28T00:06:21.657Z,8.50
2022-12-28T00:08:48.701Z,8.50
2022-12-28T00:11:28.351Z,8.50
2022-12-28T00:13:58.795Z,8.50
2022-12-28T00:16:27.770Z,8.50
2022-12-28T00:18:55.496Z,8.50
2022-12-28T00:21:22.428Z,8.50
2022-12-28T00:23:50.608Z,8.50
2022-12-28T00:26:17.557Z,8.50
2022-12-28T00:28:44.736Z,8.60
2022-12-28T00:31:11.900Z,8.60
2022-12-28T00:33:39.093Z,8.60
2022-12-28T00:36:06.463Z,8.60
2022-12-28T00:38:34.813Z,8.60
2022-12-28T00:41:01.841Z,8.60
2022-12-28T00:43:28.733Z,8.60
2022-12-28T00:45:55.660Z,8.60
2022-12-28T00:48:22.782Z,8.60
2022-12-28T00:50:49.658Z,8.60
2022-12-28T00:53:16.562Z,8.60
2022-12-28T00:55:43.423Z,8.70
2022-12-28T00:58:10.290Z,8.70
2022-12-28T01:00:37.568Z,8.70
2022-12-28T01:03:04.960Z,8.70
2022-12-28T01:05:31.932Z,8.70
2022-12-28T01:07:58.848Z,8.70
2022-12-28T01:10:25.767Z,8.80
2022-12-28T01:12:53.726Z,8.80
2022-12-28T01:15:20.595Z,8.80
2022-12-28T01:17:47.545Z,8.90
2022-12-28T01:20:14.391Z,8.80
2022-12-28T01:22:41.493Z,8.80
2022-12-28T01:25:08.492Z,8.90
2022-12-28T01:27:35.394Z,8.90
2022-12-28T01:30:02.235Z,8.90
2022-12-28T01:32:29.153Z,9.00
2022-12-28T01:34:56.019Z,8.90
2022-12-28T01:37:22.877Z,9.00
2022-12-28T01:39:49.776Z,9.00
2022-12-28T01:42:18.263Z,9.00
2022-12-28T01:44:48.996Z,9.00
2022-12-28T01:47:29.312Z,9.00
2022-12-28T01:50:03.168Z,9.10
2022-12-28T01:52:36.951Z,9.10
2022-12-28T01:55:08.448Z,9.10
2022-12-28T01:57:43.699Z,9.20
2022-12-28T02:00:12.235Z,9.10
2022-12-28T02:02:40.309Z,9.20
2022-12-28T02:05:08.245Z,9.30
2022-12-28T02:07:57.638Z,9.20
2022-12-28T02:10:43.778Z,9.30
2022-12-28T02:13:13.309Z,9.30
2022-12-28T02:15:40.288Z,9.40
2022-12-28T02:18:07.226Z,9.40
2022-12-28T02:20:54.341Z,9.40
2022-12-28T02:23:33.479Z,9.40
2022-12-28T02:26:20.837Z,9.50
2022-12-28T02:28:59.877Z,9.50
2022-12-28T02:31:35.860Z,9.40
2022-12-28T02:34:24.554Z,9.40
2022-12-28T02:36:55.576Z,9.40
2022-12-28T02:39:25.940Z,9.50
2022-12-28T02:41:53.543Z,9.50
2022-12-28T02:44:40.736Z,9.50
2022-12-28T02:47:31.845Z,9.50
2022-12-28T02:50:08.500Z,9.50
2022-12-28T02:52:41.780Z,9.50
2022-12-28T02:55:44.118Z,9.50
2022-12-28T02:58:23.228Z,9.50
2022-12-28T03:00:52.963Z,9.60
2022-12-28T03:03:19.829Z,9.60
2022-12-28T03:06:08.486Z,9.50
2022-12-28T03:08:54.619Z,9.50
2022-12-28T03:11:25.344Z,9.50
2022-12-28T03:14:21.110Z,9.60
2022-12-28T03:17:08.403Z,9.60
2022-12-28T03:20:00.508Z,9.60
2022-12-28T03:22:47.163Z,9.60
2022-12-28T03:25:34.895Z,9.60
2022-12-28T03:28:21.477Z,9.60
2022-12-28T03:31:05.855Z,9.70
2022-12-28T03:33:34.555Z,9.80
2022-12-28T03:36:01.385Z,9.80
2022-12-28T03:38:31.402Z,9.80
2022-12-28T03:41:06.142Z,9.90
2022-12-28T03:43:45.625Z,9.90
2022-12-28T03:46:18.092Z,9.90
2022-12-28T03:48:45.510Z,9.90
2022-12-28T03:51:14.527Z,9.90
2022-12-28T03:53:43.372Z,10.00
2022-12-28T03:56:11.684Z,9.90
2022-12-28T03:58:38.818Z,10.10
2022-12-28T04:01:08.938Z,10.10
2022-12-28T04:03:36.033Z,10.00
2022-12-28T04:06:03.294Z,9.90
2022-12-28T04:08:30.924Z,9.90
2022-12-28T04:10:59.081Z,9.90
2022-12-28T04:13:28.388Z,9.80
2022-12-28T04:15:56.939Z,9.80
2022-12-28T04:18:23.898Z,9.80
2022-12-28T04:20:50.793Z,9.80
2022-12-28T04:23:17.627Z,9.80
2022-12-28T04:25:44.502Z,9.80
2022-12-28T04:28:11.346Z,9.80
2022-12-28T04:30:38.209Z,9.80
2022-12-28T04:33:05.098Z,9.80
2022-12-28T04:35:32.412Z,9.80
2022-12-28T04:37:59.337Z,9.80
2022-12-28T04:40:26.181Z,9.90
2022-12-28T04:42:53.042Z,9.90
2022-12-28T04:45:22.146Z,9.90
2022-12-28T04:47:49.359Z,9.90
2022-12-28T04:50:16.276Z,9.90
2022-12-28T04:52:43.639Z,9.90
2022-12-28T04:55:31.873Z,9.90
2022-12-28T04:57:57.445Z,10.00
2022-12-28T05:00:24.360Z,10.00
2022-12-28T05:02:52.125Z,9.90
2022-12-28T05:05:18.975Z,9.90
2022-12-28T05:07:45.838Z,10.00
2022-12-28T05:10:12.748Z,9.90
2022-12-28T05:12:39.623Z,9.90
2022-12-28T05:15:06.906Z,10.00
2022-12-28T05:17:34.061Z,10.00
2022-12-28T05:20:00.904Z,10.00
2022-12-28T05:22:27.775Z,10.00
2022-12-28T05:24:54.669Z,10.00
2022-12-28T05:27:21.839Z,10.00
2022-12-28T05:29:48.716Z,10.00
2022-12-28T05:32:16.060Z,10.00
2022-12-28T05:34:43.012Z,10.00
2022-12-28T05:37:09.902Z,10.00
2022-12-28T05:39:36.805Z,10.10
2022-12-28T05:42:04.074Z,10.00
2022-12-28T05:44:31.234Z,10.10
2022-12-28T05:46:58.089Z,10.10
2022-12-28T05:49:24.899Z,10.10
2022-12-28T05:51:52.099Z,10.10
2022-12-28T05:54:18.997Z,10.10
2022-12-28T05:56:46.045Z,10.10
2022-12-28T05:59:13.789Z,10.10
2022-12-28T06:01:43.384Z,10.10
2022-12-28T06:04:20.406Z,10.10
2022-12-28T06:06:47.807Z,10.20
2022-12-28T06:09:14.824Z,10.20
2022-12-28T06:11:41.962Z,10.20
2022-12-28T06:14:08.881Z,10.20
2022-12-28T06:16:37.470Z,10.20
2022-12-28T06:19:05.744Z,10.20
2022-12-28T06:21:33.392Z,10.20
2022-12-28T06:24:00.835Z,10.20
2022-12-28T06:26:28.972Z,10.20
2022-12-28T06:28:56.304Z,10.20
2022-12-28T06:31:24.939Z,10.20
2022-12-28T06:33:57.292Z,10.30
2022-12-28T06:36:25.888Z,10.30
2022-12-28T06:38:53.673Z,10.20
2022-12-28T06:41:20.990Z,10.30
2022-12-28T06:43:48.547Z,10.20
2022-12-28T06:46:16.352Z,10.20
2022-12-28T06:48:43.280Z,10.20
2022-12-28T06:51:17.806Z,10.20
2022-12-28T06:53:45.252Z,10.20
2022-12-28T06:56:13.226Z,10.20
2022-12-28T06:58:40.128Z,10.20
2022-12-28T07:01:12.202Z,10.20
2022-12-28T07:03:39.197Z,10.20
2022-12-28T07:06:06.492Z,10.20
2022-12-28T07:08:33.866Z,10.20
2022-12-28T07:11:11.675Z,10.20
2022-12-28T07:13:38.785Z,10.20
2022-12-28T07:16:07.437Z,10.20
2022-12-28T07:18:34.609Z,10.20
2022-12-28T07:21:02.413Z,10.20
2022-12-28T07:23:31.454Z,10.30
2022-12-28T07:26:03.496Z,10.20
2022-12-28T07:28:30.347Z,10.20
2022-12-28T07:30:57.320Z,10.30
2022-12-28T07:33:24.212Z,10.20
2022-12-28T07:35:51.054Z,10.30
2022-12-28T07:38:21.306Z,10.30
2022-12-28T07:40:48.491Z,10.30
2022-12-28T07:43:15.389Z,10.30
2022-12-28T07:45:42.337Z,10.30
2022-12-28T07:48:09.197Z,10.40
2022-12-28T07:50:38.202Z,10.40
2022-12-28T07:53:05.240Z,10.40
2022-12-28T07:55:32.320Z,10.40
2022-12-28T07:58:00.520Z,10.40
2022-12-28T08:00:27.373Z,10.50
2022-12-28T08:02:55.608Z,10.40
2022-12-28T08:05:22.459Z,10.40
2022-12-28T08:07:49.274Z,10.50
2022-12-28T08:10:16.101Z,10.50
2022-12-28T08:12:42.922Z,10.50
2022-12-28T08:15:10.032Z,10.50
2022-12-28T08:17:37.270Z,10.50
2022-12-28T08:20:04.310Z,10.50
2022-12-28T08:22:31.208Z,10.60
2022-12-28T08:24:58.056Z,10.50
2022-12-28T08:27:24.923Z,10.60
2022-12-28T08:29:51.733Z,10.60
2022-12-28T08:32:18.572Z,10.60
2022-12-28T08:34:45.396Z,10.60
2022-12-28T08:37:12.288Z,10.60
2022-12-28T08:39:39.113Z,10.60
2022-12-28T08:42:05.970Z,10.60
2022-12-28T08:44:32.844Z,10.60
2022-12-28T08:46:59.735Z,10.60
2022-12-28T08:49:26.632Z,10.60
2022-12-28T08:51:53.550Z,10.60
2022-12-28T08:54:20.566Z,10.60
2022-12-28T08:56:47.581Z,10.60
2022-12-28T08:59:15.747Z,10.60
2022-12-28T09:01:44.561Z,10.60
2022-12-28T09:04:14.620Z,10.60
2022-12-28T09:06:41.448Z,10.60
2022-12-28T09:09:10.885Z,10.70
2022-12-28T09:11:38.270Z,10.60
2022-12-28T09:14:06.635Z,10.60
2022-12-28T09:16:33.833Z,10.60
2022-12-28T09:19:01.992Z,10.60
2022-12-28T09:21:30.415Z,10.60
2022-12-28T09:23:57.451Z,10.60
2022-12-28T09:26:26.102Z,10.60
2022-12-28T09:28:54.170Z,10.60
2022-12-28T09:31:22.276Z,10.60
2022-12-28T09:36:48.354Z,10.60
2022-12-28T09:39:17.660Z,10.70
2022-12-28T09:41:50.084Z,10.70
2022-12-28T09:44:27.292Z,10.60
2022-12-28T09:46:57.500Z,10.70
2022-12-28T09:49:29.524Z,10.60
2022-12-28T09:52:00.646Z,10.70
2022-12-28T09:54:27.583Z,10.60
2022-12-28T09:56:54.436Z,10.70
2022-12-28T09:59:22.844Z,10.70
2022-12-28T10:02:01.118Z,10.70
2022-12-28T10:04:28.059Z,10.70
2022-12-28T10:06:55.211Z,10.70
2022-12-28T10:09:30.252Z,10.70
2022-12-28T10:11:58.215Z,10.80
2022-12-28T10:14:30.531Z,10.70
2022-12-28T10:16:57.361Z,10.80
2022-12-28T10:19:25.185Z,10.70
2022-12-28T10:22:02.655Z,10.80
2022-12-28T10:24:31.890Z,10.80
2022-12-28T10:27:01.058Z,10.80
2022-12-28T10:29:28.196Z,10.80
2022-12-28T10:32:06.580Z,10.80
2022-12-28T10:34:35.318Z,10.80
2022-12-28T10:37:14.073Z,10.80
2022-12-28T10:39:47.869Z,10.80
2022-12-28T10:42:21.722Z,10.80
2022-12-28T10:44:49.850Z,10.80
2022-12-28T10:47:18.075Z,10.80
2022-12-28T10:50:10.402Z,10.80
2022-12-28T10:52:38.576Z,10.80
2022-12-28T10:55:25.420Z,10.80
2022-12-28T10:58:27.470Z,10.90
2022-12-28T11:00:39.767Z,10.80
2022-12-28T11:03:27.409Z,10.90
2022-12-28T11:06:13.306Z,10.90
2022-12-28T11:08:41.083Z,10.90
2022-12-28T11:11:16.729Z,10.90
2022-12-28T11:13:45.629Z,10.90
2022-12-28T11:16:13.451Z,11.00
2022-12-28T11:18:41.071Z,10.90
2022-12-28T11:21:11.796Z,10.90
2022-12-28T11:23:38.864Z,10.90
2022-12-28T11:26:09.648Z,10.90
2022-12-28T11:28:36.507Z,10.90
2022-12-28T11:31:04.105Z,10.90
2022-12-28T11:33:39.414Z,11.00
2022-12-28T11:36:11.113Z,11.00
2022-12-28T11:38:38.570Z,11.00
2022-12-28T11:41:05.755Z,11.00
2022-12-28T11:43:42.307Z,11.00
2022-12-28T11:46:21.346Z,11.10
2022-12-28T11:48:57.918Z,11.10
2022-12-28T11:51:25.985Z,11.10
2022-12-28T11:53:57.471Z,11.10
2022-12-28T11:56:28.840Z,11.10
2022-12-28T11:58:58.646Z,11.10
2022-12-28T12:01:29.257Z,11.10
2022-12-28T12:04:01.807Z,11.10
2022-12-28T12:06:44.257Z,11.10
2022-12-28T12:09:26.033Z,11.10
2022-12-28T12:11:53.830Z,11.10
2022-12-28T12:14:53.180Z,11.10
2022-12-28T12:17:35.709Z,11.10
2022-12-28T12:20:15.261Z,11.20
2022-12-28T12:22:46.773Z,11.20
2022-12-28T12:25:32.401Z,11.20
2022-12-28T12:28:06.914Z,11.20
2022-12-28T12:30:33.944Z,11.20
2022-12-28T12:33:05.722Z,11.20
2022-12-28T12:35:46.384Z,11.20
2022-12-28T12:38:13.376Z,11.20
2022-12-28T12:41:03.483Z,11.20
2022-12-28T12:43:42.433Z,11.20
2022-12-28T12:46:27.832Z,11.20
2022-12-28T12:49:05.888Z,11.20
2022-12-28T12:51:38.362Z,11.20
2022-12-28T12:54:07.866Z,11.20
2022-12-28T12:56:34.713Z,11.20
2022-12-28T12:59:04.135Z,11.20
2022-12-28T13:01:40.262Z,11.20
2022-12-28T13:04:08.445Z,11.20
2022-12-28T13:06:35.929Z,11.30
2022-12-28T13:09:06.018Z,11.30
2022-12-28T13:11:36.346Z,11.30
2022-12-28T13:14:03.194Z,11.20
2022-12-28T13:16:31.316Z,11.30
2022-12-28T13:19:05.476Z,11.20
2022-12-28T13:21:43.215Z,11.20
2022-12-28T13:24:25.439Z,11.30
2022-12-28T13:26:52.639Z,11.30
2022-12-28T13:29:23.867Z,11.40
2022-12-28T13:31:51.578Z,11.40
2022-12-28T13:34:25.986Z,11.40
2022-12-28T13:36:54.536Z,11.50
2022-12-28T13:39:21.713Z,11.50
2022-12-28T13:41:50.480Z,11.50
2022-12-28T13:44:40.043Z,11.50
2022-12-28T13:47:13.103Z,11.50
2022-12-28T13:49:49.699Z,11.60
2022-12-28T13:52:19.845Z,11.60
2022-12-28T13:54:49.432Z,11.60
2022-12-28T14:00:04.644Z,11.60
2022-12-28T14:02:32.955Z,11.60
2022-12-28T14:04:59.919Z,11.60
2022-12-28T14:07:28.939Z,11.70
2022-12-28T14:09:56.326Z,11.70
2022-12-28T14:12:23.439Z,11.70
2022-12-28T14:14:50.882Z,11.70
2022-12-28T14:17:17.911Z,11.80
2022-12-28T14:19:45.047Z,11.70
2022-12-28T14:22:30.061Z,11.70
2022-12-28T14:24:59.982Z,11.70
2022-12-28T14:27:26.989Z,11.70
2022-12-28T14:29:54.583Z,11.70
2022-12-28T14:32:21.728Z,11.70
2022-12-28T14:34:52.508Z,11.60
2022-12-28T14:37:27.897Z,11.60
2022-12-28T14:39:58.299Z,11.60
2022-12-28T14:42:25.808Z,11.70
2022-12-28T14:44:56.184Z,11.70
2022-12-28T14:47:37.036Z,11.60
2022-12-28T14:50:13.470Z,11.60
2022-12-28T14:52:44.827Z,11.60
2022-12-28T14:55:27.088Z,11.60
2022-12-28T14:58:17.476Z,11.50
2022-12-28T15:00:53.967Z,11.60
2022-12-28T15:03:21.770Z,11.60
2022-12-28T15:05:50.256Z,11.60
2022-12-28T15:08:17.275Z,11.60
2022-12-28T15:10:54.802Z,11.60
2022-12-28T15:13:22.643Z,11.60
2022-12-28T15:15:55.546Z,11.60
2022-12-28T15:18:22.658Z,11.60
2022-12-28T15:20:49.843Z,11.60
2022-12-28T15:23:17.034Z,11.60
2022-12-28T15:25:44.296Z,11.50
2022-12-28T15:28:11.447Z,11.50
2022-12-28T15:30:41.825Z,11.50
2022-12-28T15:33:09.224Z,11.50
2022-12-28T15:35:36.220Z,11.50
2022-12-28T15:38:03.448Z,11.50
2022-12-28T15:40:30.875Z,11.40
2022-12-28T15:42:58.129Z,11.40
2022-12-28T15:45:25.064Z,11.30
2022-12-28T15:47:55.160Z,11.30
2022-12-28T15:50:22.221Z,11.30
2022-12-28T15:52:49.280Z,11.30
2022-12-28T15:55:16.250Z,11.30
2022-12-28T15:57:44.717Z,11.30
2022-12-28T16:00:18.229Z,11.30
2022-12-28T16:02:45.748Z,11.30
2022-12-28T16:05:12.816Z,11.30
2022-12-28T16:07:39.755Z,11.30
2022-12-28T16:10:06.808Z,11.20
2022-12-28T16:12:33.770Z,11.20
2022-12-28T16:15:00.596Z,11.20
2022-12-28T16:17:27.496Z,11.20
2022-12-28T16:19:54.355Z,11.20
2022-12-28T16:22:21.235Z,11.30
2022-12-28T16:24:50.556Z,11.30
2022-12-28T16:27:21.382Z,11.20
2022-12-28T16:29:53.938Z,11.30
2022-12-28T16:32:23.745Z,11.20
2022-12-28T16:34:50.579Z,11.20
2022-12-28T16:37:18.567Z,11.20
2022-12-28T16:39:45.471Z,11.30
2022-12-28T16:42:12.601Z,11.20
2022-12-28T16:44:39.447Z,11.20
2022-12-28T16:47:06.662Z,11.20
2022-12-28T16:49:33.662Z,11.30
2022-12-28T16:52:00.667Z,11.20
2022-12-28T16:54:27.803Z,11.20
2022-12-28T16:56:55.148Z,11.20
2022-12-28T16:59:24.654Z,11.10
2022-12-28T17:01:52.492Z,11.10
2022-12-28T17:04:19.544Z,11.10
2022-12-28T17:06:46.979Z,11.10
2022-12-28T17:09:15.176Z,11.00
2022-12-28T17:11:42.075Z,11.00
2022-12-28T17:14:12.061Z,11.00
2022-12-28T17:16:39.064Z,11.00
2022-12-28T17:19:06.016Z,11.00
2022-12-28T17:21:33.654Z,11.00
2022-12-28T17:24:01.188Z,11.00
2022-12-28T17:26:28.082Z,11.00
2022-12-28T17:28:54.952Z,11.00
2022-12-28T17:31:22.491Z,11.00
2022-12-28T17:33:50.885Z,11.00
2022-12-28T17:36:17.739Z,11.00
2022-12-28T17:38:44.635Z,11.00
2022-12-28T17:41:13.259Z,11.00
2022-12-28T17:43:40.157Z,10.90
2022-12-28T17:46:07.137Z,11.00
2022-12-28T17:48:34.040Z,11.00
2022-12-28T17:51:01.011Z,11.00
2022-12-28T17:53:29.277Z,11.00
2022-12-28T17:55:56.136Z,11.10
2022-12-28T17:58:23.021Z,11.10
2022-12-28T18:00:52.867Z,11.10
2022-12-28T18:03:19.768Z,11.10
2022-12-28T18:05:50.120Z,11.10
2022-12-28T18:08:17.232Z,11.00
2022-12-28T18:10:44.633Z,11.00
2022-12-28T18:13:12.317Z,11.10
2022-12-28T18:15:39.373Z,11.10
2022-12-28T18:18:06.309Z,11.00
2022-12-28T18:20:33.431Z,11.10
2022-12-28T18:23:00.295Z,11.20
2022-12-28T18:25:27.222Z,11.30
2022-12-28T18:27:54.086Z,11.30
2022-12-28T18:30:20.977Z,11.40
2022-12-28T18:32:47.951Z,11.50
2022-12-28T18:35:15.224Z,11.40
2022-12-28T18:37:42.140Z,11.50
2022-12-28T18:40:09.833Z,11.50
2022-12-28T18:42:36.770Z,11.50
2022-12-28T18:45:03.715Z,11.50
2022-12-28T18:47:33.156Z,11.50
2022-12-28T18:49:59.987Z,11.50
2022-12-28T18:52:26.888Z,11.40
2022-12-28T18:54:53.858Z,11.50
2022-12-28T18:57:20.694Z,11.60
2022-12-28T18:59:47.812Z,11.50
2022-12-28T19:02:19.428Z,11.50
2022-12-28T19:04:48.243Z,11.50
2022-12-28T19:07:16.375Z,11.50
2022-12-28T19:10:11.593Z,11.60
2022-12-28T19:12:40.252Z,11.50
2022-12-28T19:15:07.372Z,11.60
2022-12-28T19:17:34.293Z,11.60
2022-12-28T19:20:01.146Z,11.60
2022-12-28T19:22:28.025Z,11.60
2022-12-28T19:24:54.845Z,11.70
2022-12-28T19:27:21.842Z,11.70
2022-12-28T19:29:50.725Z,11.60
2022-12-28T19:32:17.650Z,11.70
2022-12-28T19:34:44.515Z,11.70
2022-12-28T19:37:11.361Z,11.70
2022-12-28T19:39:38.203Z,11.70
2022-12-28T19:42:05.113Z,11.70
2022-12-28T19:44:31.993Z,11.70
2022-12-28T19:46:59.031Z,11.80
2022-12-28T19:49:26.019Z,11.80
2022-12-28T19:51:55.578Z,11.90
2022-12-28T19:54:22.633Z,11.90
2022-12-28T19:56:49.543Z,11.90
2022-12-28T19:59:16.466Z,12.00
2022-12-28T20:01:43.441Z,12.00
2022-12-28T20:04:13.884Z,12.00
2022-12-28T20:09:31.640Z,12.10
2022-12-28T20:11:58.487Z,12.10
2022-12-28T20:14:25.460Z,12.20
2022-12-28T20:16:52.336Z,12.20
2022-12-28T20:19:19.345Z,12.20
2022-12-28T20:21:46.382Z,12.30
2022-12-28T20:24:13.424Z,12.30
2022-12-28T20:26:40.388Z,12.40
2022-12-28T20:29:07.273Z,12.40
2022-12-28T20:31:34.245Z,12.40
2022-12-28T20:34:01.904Z,12.30
2022-12-28T20:36:29.312Z,12.30
2022-12-28T20:38:56.327Z,12.40
2022-12-28T20:41:46.672Z,12.50
2022-12-28T20:44:14.974Z,12.50
2022-12-28T20:46:42.374Z,12.50
2022-12-28T20:49:10.189Z,12.50
2022-12-28T20:51:37.133Z,12.60
2022-12-28T20:54:04.132Z,12.50
2022-12-28T20:56:30.993Z,12.60
2022-12-28T20:58:58.737Z,12.70
2022-12-28T21:01:25.744Z,12.60
2022-12-28T21:03:52.839Z,12.60
2022-12-28T21:06:19.732Z,12.70
2022-12-28T21:08:46.614Z,12.70
2022-12-28T21:11:13.549Z,12.70
2022-12-28T21:13:44.540Z,12.70
2022-12-28T21:16:12.903Z,12.80
2022-12-28T21:18:39.747Z,12.80
2022-12-28T21:21:07.276Z,12.80
2022-12-28T21:23:34.170Z,12.80
2022-12-28T21:26:02.087Z,12.80
2022-12-28T21:28:29.081Z,12.80
2022-12-28T21:30:56.744Z,12.80
2022-12-28T21:33:23.627Z,12.90
2022-12-28T21:36:03.882Z,12.90
2022-12-28T21:38:31.237Z,12.90
2022-12-28T21:41:02.564Z,12.80
2022-12-28T21:43:29.550Z,12.80
2022-12-28T21:46:02.510Z,12.90
2022-12-28T21:48:33.986Z,13.00
2022-12-28T21:51:32.068Z,13.00
2022-12-28T21:54:00.193Z,13.00
2022-12-28T21:56:27.516Z,12.90
2022-12-28T21:58:54.755Z,12.90
2022-12-28T22:01:40.380Z,13.10
2022-12-28T22:04:25.916Z,13.00
2022-12-28T22:06:52.953Z,13.00
2022-12-28T22:09:38.271Z,13.00
2022-12-28T22:12:24.136Z,13.00
2022-12-28T22:15:11.032Z,13.10
2022-12-28T22:17:37.920Z,13.10
2022-12-28T22:20:05.110Z,13.10
2022-12-28T22:22:31.995Z,13.10
2022-12-28T22:24:58.983Z,13.10
2022-12-28T22:27:25.858Z,13.10
2022-12-28T22:29:52.664Z,13.10
2022-12-28T22:32:19.531Z,13.20
2022-12-28T22:34:46.391Z,13.20
2022-12-28T22:37:14.184Z,13.20
2022-12-28T22:39:41.121Z,13.20
2022-12-28T22:42:08.839Z,13.20
2022-12-28T22:44:36.028Z,13.30
2022-12-28T22:47:03.319Z,13.20
2022-12-28T22:49:30.363Z,13.20
2022-12-28T22:51:57.290Z,13.20
2022-12-28T22:54:24.207Z,13.20
2022-12-28T22:56:51.061Z,13.20
2022-12-28T22:59:17.942Z,13.20
2022-12-28T23:01:45.147Z,13.30
2022-12-28T23:04:12.128Z,13.20
2022-12-28T23:06:38.984Z,13.20
2022-12-28T23:09:07.221Z,13.10
2022-12-28T23:11:36.943Z,13.10
2022-12-28T23:14:32.647Z,13.10
2022-12-28T23:16:59.976Z,13.10
2022-12-28T23:19:45.812Z,13.10
2022-12-28T23:22:36.181Z,13.20
2022-12-28T23:25:21.500Z,13.20
2022-12-28T23:27:48.429Z,13.20
2022-12-28T23:30:19.715Z,13.20
2022-12-28T23:32:47.587Z,13.10
2022-12-28T23:35:15.327Z,13.00
2022-12-28T23:37:42.193Z,12.90
2022-12-28T23:40:09.880Z,12.80
2022-12-28T23:42:37.314Z,12.80
2022-12-28T23:45:05.012Z,12.70
2022-12-28T23:47:31.936Z,12.70
2022-12-28T23:49:58.757Z,12.60
2022-12-28T23:52:26.308Z,12.60
2022-12-28T23:54:53.212Z,12.70
2022-12-28T23:57:20.708Z,12.70
2022-12-28T23:59:47.532Z,12.70
